Time;durP1;ratioP1;P1;durP2;ratioP2;P2;SDS_P1;SDS_P2;PMS_P1;PMS_P2;Temp;Humidity;BMP_temperature;BMP_pressure;BME280_temperature;BME280_humidity;BME280_pressure;Samples;Min_cycle;Max_cycle;Signal;HPM_P1;HPM_P2
2023/03/14 00:00:25;;;;;;;7.00;3.40;;;21.50;64.90;;;;;;221933;1259;25330;-56
2023/03/14 00:05:49;;;;;;;6.90;3.70;;;21.50;64.70;;;;;;221916;1257;22793;-53
2023/03/14 00:10:53;;;;;;;8.30;3.80;;;21.70;64.10;;;;;;222213;1256;22622;-54
2023/03/14 00:16:03;;;;;;;9.40;3.40;;;21.60;63.70;;;;;;221968;1264;22507;-49
2023/03/14 00:21:09;;;;;;;6.10;3.70;;;21.60;63.60;;;;;;222072;1263;24395;-53
2023/03/14 00:26:17;;;;;;;4.60;3.30;;;21.60;63.60;;;;;;222208;1264;22514;-54
2023/03/14 00:31:21;;;;;;;6.30;3.00;;;21.50;63.80;;;;;;221904;1263;24361;-55
2023/03/14 00:36:26;;;;;;;6.20;3.40;;;21.50;63.20;;;;;;222093;1251;22508;-53
2023/03/14 00:41:30;;;;;;;6.30;3.30;;;21.50;63.10;;;;;;222021;1266;22519;-55
2023/03/14 00:46:33;;;;;;;7.00;3.30;;;21.50;63.20;;;;;;221876;1266;22520;-55
2023/03/14 00:51:38;;;;;;;5.20;3.50;;;21.50;62.70;;;;;;221754;1264;22989;-54
2023/03/14 00:56:42;;;;;;;7.60;3.50;;;21.50;62.60;;;;;;221886;1259;22544;-54
2023/03/14 01:01:46;;;;;;;5.30;3.30;;;21.50;62.50;;;;;;222001;1259;22512;-53
2023/03/14 01:06:50;;;;;;;6.20;3.30;;;21.60;62.60;;;;;;222007;1266;24230;-55
2023/03/14 01:11:54;;;;;;;6.00;3.20;;;21.90;61.80;;;;;;221695;1260;22615;-54
2023/03/14 01:17:00;;;;;;;6.30;3.70;;;22.30;60.80;;;;;;221973;1256;25270;-55
2023/03/14 01:22:04;;;;;;;4.00;2.80;;;22.50;60.40;;;;;;221687;1257;25309;-54
2023/03/14 01:27:08;;;;;;;5.10;3.20;;;22.80;59.50;;;;;;221865;1256;22762;-55
2023/03/14 01:32:13;;;;;;;5.70;3.50;;;22.80;59.10;;;;;;222093;1256;22676;-54
2023/03/14 01:37:17;;;;;;;4.30;3.10;;;23.00;58.90;;;;;;221989;1257;22907;-54
2023/03/14 01:42:22;;;;;;;5.50;2.90;;;23.00;59.00;;;;;;221938;1270;22671;-52
2023/03/14 01:47:27;;;;;;;4.40;2.50;;;23.00;58.60;;;;;;221980;1266;24187;-56
2023/03/14 01:52:41;;;;;;;3.30;2.70;;;23.00;58.50;;;;;;221740;1260;22522;-54
2023/03/14 01:57:50;;;;;;;3.70;2.70;;;23.10;58.20;;;;;;221949;1259;24003;-56
2023/03/14 02:02:59;;;;;;;3.70;2.50;;;23.10;58.20;;;;;;222033;1257;23062;-56
2023/03/14 02:08:40;;;;;;;3.60;2.80;;;23.20;58.10;;;;;;222212;1257;25492;-44
2023/03/14 02:13:51;;;;;;;3.20;2.60;;;23.20;57.90;;;;;;221934;1260;24355;-51
2023/03/14 02:19:17;;;;;;;3.70;2.60;;;23.20;58.40;;;;;;221827;1269;205733;-53
2023/03/14 02:25:01;;;;;;;3.00;2.40;;;23.40;57.60;;;;;;222014;1264;25374;-55
2023/03/14 02:30:13;;;;;;;3.60;2.90;;;23.30;57.40;;;;;;222235;1254;23700;-57
2023/03/14 02:35:24;;;;;;;2.80;2.40;;;23.40;57.40;;;;;;222192;1258;24212;-56
2023/03/14 02:40:29;;;;;;;4.10;2.90;;;23.40;57.40;;;;;;221901;1256;25201;-54
2023/03/14 02:45:41;;;;;;;4.40;2.50;;;23.30;57.60;;;;;;222346;1265;24305;-56
2023/03/14 02:50:48;;;;;;;3.50;2.70;;;23.10;57.90;;;;;;222317;1257;24174;-54
2023/03/14 02:55:52;;;;;;;4.30;2.70;;;23.00;57.80;;;;;;222248;1266;24218;-56
2023/03/14 03:00:58;;;;;;;3.10;2.40;;;23.00;58.10;;;;;;222223;1264;22507;-55
2023/03/14 03:06:02;;;;;;;3.00;2.50;;;22.90;58.00;;;;;;222267;1266;24043;-54
2023/03/14 03:11:07;;;;;;;3.20;2.40;;;22.90;58.00;;;;;;222251;1263;23923;-56
2023/03/14 03:16:13;;;;;;;3.50;2.60;;;22.90;58.00;;;;;;222275;1263;25331;-55
2023/03/14 03:21:18;;;;;;;3.60;3.00;;;22.80;57.90;;;;;;222219;1257;24351;-52
2023/03/14 03:26:22;;;;;;;4.00;2.80;;;22.70;58.10;;;;;;222256;1264;22543;-51
2023/03/14 03:31:27;;;;;;;3.60;2.70;;;22.70;58.40;;;;;;222201;1264;22530;-56
2023/03/14 03:36:32;;;;;;;4.30;2.30;;;22.60;58.30;;;;;;222303;1256;25210;-55
2023/03/14 03:41:36;;;;;;;3.00;2.20;;;22.50;59.20;;;;;;222233;1264;22990;-56
2023/03/14 03:46:40;;;;;;;5.70;2.30;;;22.40;59.00;;;;;;222272;1263;22521;-60
2023/03/14 03:51:45;;;;;;;3.00;2.50;;;22.40;58.80;;;;;;222152;1264;22531;-56
2023/03/14 03:56:49;;;;;;;4.50;2.30;;;22.30;58.60;;;;;;220868;1269;22521;-57
2023/03/14 04:01:54;;;;;;;2.60;2.40;;;22.30;59.30;;;;;;221104;1273;24225;-53
2023/03/14 04:06:59;;;;;;;3.60;2.60;;;22.30;59.00;;;;;;220940;1270;22621;-53
2023/03/14 04:12:03;;;;;;;2.40;2.10;;;22.20;58.70;;;;;;220921;1270;26544;-53
2023/03/14 04:17:17;;;;;;;3.50;2.30;;;22.20;58.40;;;;;;229971;1266;22350;-50
2023/03/14 04:22:22;;;;;;;2.90;2.20;;;22.30;58.30;;;;;;223589;1260;25598;-55
2023/03/14 04:27:27;;;;;;;2.50;2.20;;;22.30;57.70;;;;;;222219;1255;24201;-53
2023/03/14 04:32:32;;;;;;;3.20;2.30;;;22.20;58.00;;;;;;222283;1264;25127;-59
2023/03/14 04:37:36;;;;;;;4.00;2.60;;;22.10;58.40;;;;;;222253;1263;22696;-55
2023/03/14 04:42:43;;;;;;;2.80;2.30;;;22.00;58.30;;;;;;222089;1266;22636;-55
2023/03/14 04:47:47;;;;;;;2.00;1.90;;;22.00;58.90;;;;;;222244;1257;22521;-51
2023/03/14 04:52:54;;;;;;;2.70;2.30;;;22.00;59.10;;;;;;222262;1257;22512;-52
2023/03/14 04:57:59;;;;;;;2.40;2.20;;;21.90;58.60;;;;;;222357;1263;22558;-55
2023/03/14 05:03:04;;;;;;;2.70;2.30;;;21.90;58.70;;;;;;222363;1263;25210;-56
2023/03/14 05:08:10;;;;;;;1.70;1.60;;;21.90;59.00;;;;;;222458;1263;25386;-54
2023/03/14 05:13:26;;;;;;;2.50;2.00;;;21.80;58.90;;;;;;222293;1270;22526;-55
2023/03/14 05:18:50;;;;;;;2.40;1.90;;;21.80;58.80;;;;;;222093;1270;22515;-55
2023/03/14 05:24:14;;;;;;;2.20;2.00;;;21.70;58.70;;;;;;221910;1270;22568;-54
2023/03/14 05:29:41;;;;;;;4.50;1.90;;;21.80;58.80;;;;;;222038;1268;22515;-54
2023/03/14 05:35:05;;;;;;;2.50;2.30;;;21.70;58.80;;;;;;222197;1263;22569;-56
2023/03/14 05:40:32;;;;;;;2.40;2.00;;;21.70;58.80;;;;;;221842;1263;24241;-60
2023/03/14 05:46:15;;;;;;;3.00;1.90;;;21.70;58.80;;;;;;221071;1261;22515;-43
2023/03/14 05:51:48;;;;;;;2.10;1.90;;;21.70;58.80;;;;;;222179;1258;23925;-40
2023/03/14 05:57:21;;;;;;;2.50;2.10;;;21.80;58.70;;;;;;222094;1257;22511;-45
2023/03/14 06:02:44;;;;;;;2.30;1.90;;;22.20;58.20;;;;;;222256;1263;22508;-42
2023/03/14 06:07:54;;;;;;;2.40;2.10;;;22.30;58.10;;;;;;222148;1260;22511;-42
2023/03/14 06:12:59;;;;;;;2.60;1.90;;;22.60;57.50;;;;;;222264;1263;22801;-41
2023/03/14 06:18:03;;;;;;;2.20;2.00;;;22.80;56.90;;;;;;222296;1263;22510;-44
2023/03/14 06:23:08;;;;;;;2.30;1.70;;;23.00;56.60;;;;;;222341;1247;25383;-43
2023/03/14 06:28:12;;;;;;;1.80;1.70;;;23.10;56.50;;;;;;222114;1258;22537;-44
2023/03/14 06:33:17;;;;;;;2.10;1.80;;;23.10;56.10;;;;;;222379;1248;25507;-42
2023/03/14 06:38:22;;;;;;;1.70;1.60;;;23.20;55.90;;;;;;222418;1264;22511;-40
2023/03/14 06:43:29;;;;;;;2.00;1.70;;;23.10;56.30;;;;;;222102;1267;24215;-42
2023/03/14 06:48:33;;;;;;;2.20;2.00;;;23.30;55.80;;;;;;222453;1246;22655;-41
2023/03/14 06:53:38;;;;;;;4.60;1.80;;;23.30;55.70;;;;;;222152;1257;22789;-37
2023/03/14 06:58:42;;;;;;;2.30;1.70;;;23.30;56.30;;;;;;222631;1263;22517;-40
2023/03/14 07:03:47;;;;;;;2.20;1.70;;;23.30;56.10;;;;;;222349;1257;22585;-39
2023/03/14 07:08:51;;;;;;;5.10;2.30;;;23.40;56.00;;;;;;222232;1264;22504;-40
2023/03/14 07:13:56;;;;;;;4.50;2.00;;;23.40;56.00;;;;;;222122;1257;22594;-38
2023/03/14 07:19:02;;;;;;;3.00;2.00;;;23.50;56.00;;;;;;222102;1258;25463;-41
2023/03/14 07:24:07;;;;;;;7.60;2.50;;;23.60;55.90;;;;;;222209;1254;24114;-39
2023/03/14 07:29:12;;;;;;;5.50;1.90;;;23.50;55.90;;;;;;222266;1264;22518;-41
2023/03/14 07:34:16;;;;;;;3.10;2.10;;;23.40;57.00;;;;;;222194;1263;22522;-40
2023/03/14 07:39:21;;;;;;;3.80;2.10;;;23.30;56.90;;;;;;221952;1257;25421;-41
2023/03/14 07:44:36;;;;;;;8.40;2.60;;;23.30;57.50;;;;;;222173;1268;22518;-39
2023/03/14 07:49:41;;;;;;;3.50;1.90;;;23.30;57.70;;;;;;222085;1257;22633;-41
2023/03/14 07:54:45;;;;;;;7.90;2.10;;;23.10;57.50;;;;;;222200;1258;22533;-39
2023/03/14 07:59:49;;;;;;;4.70;1.80;;;23.10;57.50;;;;;;222075;1264;22543;-38
2023/03/14 08:04:53;;;;;;;8.60;2.10;;;22.90;57.80;;;;;;222273;1264;23882;-40
2023/03/14 08:09:57;;;;;;;7.20;1.90;;;23.00;57.50;;;;;;222101;1264;22512;-40
2023/03/14 08:15:02;;;;;;;10.50;2.20;;;22.90;57.90;;;;;;222239;1262;22522;-39
2023/03/14 08:20:07;;;;;;;4.90;2.30;;;22.80;58.20;;;;;;221935;1263;24476;-39
2023/03/14 08:25:12;;;;;;;3.10;2.00;;;22.60;58.10;;;;;;221536;1263;22511;-39
2023/03/14 08:30:18;;;;;;;6.00;2.30;;;22.70;58.20;;;;;;221854;1255;24225;-38
2023/03/14 08:35:22;;;;;;;2.50;1.80;;;22.80;58.10;;;;;;221940;1263;24390;-39
2023/03/14 08:40:27;;;;;;;3.40;1.80;;;22.70;57.90;;;;;;222001;1257;22772;-39
2023/03/14 08:45:31;;;;;;;7.00;1.80;;;22.60;57.80;;;;;;222065;1263;22508;-40
2023/03/14 08:50:35;;;;;;;6.00;2.00;;;22.50;58.00;;;;;;222185;1263;22512;-47
2023/03/14 08:55:40;;;;;;;3.20;2.00;;;22.40;58.00;;;;;;222157;1263;24052;-51
2023/03/14 09:00:44;;;;;;;2.20;1.80;;;22.40;58.10;;;;;;222073;1263;23925;-45
2023/03/14 09:05:48;;;;;;;3.30;1.90;;;22.40;58.10;;;;;;221897;1256;23784;-56
2023/03/14 09:10:52;;;;;;;5.20;1.80;;;22.30;58.10;;;;;;222050;1257;23928;-56
2023/03/14 09:15:57;;;;;;;3.90;2.10;;;22.30;58.00;;;;;;222084;1256;25496;-56
2023/03/14 09:21:01;;;;;;;5.20;2.30;;;22.30;58.10;;;;;;222133;1256;22512;-58
2023/03/14 09:26:06;;;;;;;2.20;1.60;;;22.30;58.30;;;;;;222269;1253;24055;-55
2023/03/14 09:31:11;;;;;;;2.80;1.80;;;22.20;58.40;;;;;;222253;1262;24199;-52
2023/03/14 09:36:15;;;;;;;3.20;2.10;;;22.10;58.40;;;;;;221903;1257;22508;-52
2023/03/14 09:41:34;;;;;;;2.00;1.70;;;22.10;58.90;;;;;;222368;1267;24348;-52
2023/03/14 09:46:39;;;;;;;2.10;1.60;;;22.00;58.60;;;;;;222160;1263;25174;-53
2023/03/14 09:51:46;;;;;;;2.50;2.10;;;22.00;58.50;;;;;;222148;1256;25163;-53
2023/03/14 09:56:51;;;;;;;3.20;1.80;;;22.00;58.80;;;;;;222376;1256;26505;-56
2023/03/14 10:02:01;;;;;;;2.00;1.80;;;22.00;58.50;;;;;;222196;1257;22632;-55
2023/03/14 10:07:05;;;;;;;3.00;2.10;;;22.00;58.30;;;;;;222115;1263;22529;-57
2023/03/14 10:12:09;;;;;;;3.60;2.10;;;22.00;58.80;;;;;;222572;1247;22565;-55
2023/03/14 10:17:14;;;;;;;2.20;1.70;;;22.00;58.40;;;;;;222226;1263;23892;-57
2023/03/14 10:22:19;;;;;;;1.90;1.70;;;21.90;58.90;;;;;;222339;1262;22567;-50
2023/03/14 10:27:29;;;;;;;3.10;1.70;;;21.90;59.20;;;;;;222077;1263;24389;-53
2023/03/14 10:32:35;;;;;;;1.80;1.70;;;21.90;58.90;;;;;;222153;1263;24500;-52
2023/03/14 10:37:56;;;;;;;1.90;1.80;;;21.90;58.90;;;;;;222189;1262;25269;-54
2023/03/14 10:43:04;;;;;;;2.90;2.10;;;21.80;59.10;;;;;;222093;1255;24390;-55
2023/03/14 10:48:14;;;;;;;2.20;1.50;;;21.80;58.80;;;;;;222045;1247;24228;-44
2023/03/14 10:53:19;;;;;;;2.20;1.80;;;21.90;58.80;;;;;;222032;1248;24489;-55
2023/03/14 10:58:29;;;;;;;2.80;2.10;;;21.90;58.70;;;;;;222158;1263;24094;-56
2023/03/14 11:03:37;;;;;;;6.20;2.10;;;21.80;58.60;;;;;;222311;1267;22510;-61
2023/03/14 11:08:53;;;;;;;2.00;1.80;;;21.80;58.60;;;;;;222026;1257;22527;-55
2023/03/14 11:14:03;;;;;;;2.10;2.00;;;21.80;58.40;;;;;;221999;1257;23132;-56
2023/03/14 11:19:19;;;;;;;2.30;2.10;;;21.90;58.40;;;;;;221930;1249;23751;-48
2023/03/14 11:24:48;;;;;;;2.80;2.00;;;21.90;58.30;;;;;;222145;1263;23051;-48
2023/03/14 11:30:04;;;;;;;2.80;2.40;;;21.90;58.40;;;;;;222834;1263;25456;-55
2023/03/14 11:35:36;;;;;;;2.00;1.80;;;21.90;58.00;;;;;;222068;1256;22616;-54
2023/03/14 11:40:41;;;;;;;2.70;2.10;;;21.90;58.30;;;;;;222125;1262;22755;-50
2023/03/14 11:45:48;;;;;;;2.20;2.00;;;21.80;58.50;;;;;;221976;1259;23690;-49
2023/03/14 11:50:57;;;;;;;3.80;2.50;;;21.90;58.40;;;;;;226562;1263;23917;-53
2023/03/14 11:56:00;;;;;;;4.30;2.20;;;22.00;58.00;;;;;;230044;1263;22180;-51
2023/03/14 12:01:13;;;;;;;3.50;2.10;;;22.10;57.60;;;;;;222926;1262;24490;-54
2023/03/14 12:06:25;;;;;;;2.10;1.80;;;22.10;58.10;;;;;;222177;1263;22528;-51
2023/03/14 12:11:38;;;;;;;1.80;1.70;;;22.10;57.70;;;;;;222253;1266;25169;-53
2023/03/14 12:16:47;;;;;;;4.50;1.90;;;22.40;57.40;;;;;;222241;1256;23909;-52
2023/03/14 12:22:06;;;;;;;4.10;1.90;;;22.50;56.80;;;;;;222270;1263;22523;-53
2023/03/14 12:27:14;;;;;;;2.70;1.70;;;22.70;56.50;;;;;;222255;1256;22556;-57
2023/03/14 12:32:24;;;;;;;4.00;1.70;;;22.80;56.20;;;;;;221870;1266;22613;-54
2023/03/14 12:37:45;;;;;;;2.20;2.00;;;22.80;55.70;;;;;;222157;1266;22599;-52
2023/03/14 12:43:05;;;;;;;2.00;1.90;;;23.00;55.60;;;;;;222223;1257;26608;-52
2023/03/14 12:48:22;;;;;;;2.90;2.00;;;23.00;55.30;;;;;;222129;1259;22500;-53
2023/03/14 12:53:51;;;;;;;3.50;1.80;;;23.10;55.50;;;;;;222201;1263;24167;-55
2023/03/14 12:59:10;;;;;;;3.20;1.70;;;23.10;54.90;;;;;;222300;1256;22517;-53
2023/03/14 13:04:14;;;;;;;1.70;1.50;;;23.30;55.00;;;;;;222398;1263;22896;-53
2023/03/14 13:09:27;;;;;;;2.10;1.80;;;23.40;54.40;;;;;;222256;1257;24254;-57
2023/03/14 13:14:33;;;;;;;2.40;1.80;;;23.40;54.30;;;;;;222236;1263;24060;-54
2023/03/14 13:19:38;;;;;;;1.60;1.50;;;23.50;54.10;;;;;;222138;1257;24360;-55
2023/03/14 13:24:42;;;;;;;1.70;1.60;;;23.60;53.90;;;;;;222225;1258;22511;-54
2023/03/14 13:29:49;;;;;;;1.50;1.40;;;23.70;53.80;;;;;;222177;1256;24352;-55
2023/03/14 13:34:59;;;;;;;1.80;1.70;;;23.60;53.80;;;;;;222211;1263;22683;-55
2023/03/14 13:40:04;;;;;;;1.60;1.50;;;23.60;54.10;;;;;;222110;1263;22530;-55
2023/03/14 13:45:13;;;;;;;2.20;1.70;;;23.60;54.00;;;;;;222232;1270;22592;-53
2023/03/14 13:50:18;;;;;;;2.00;1.80;;;23.60;53.90;;;;;;222291;1256;25343;-50
2023/03/14 13:55:22;;;;;;;3.10;1.80;;;23.60;54.00;;;;;;222164;1257;22521;-54
2023/03/14 14:00:29;;;;;;;1.90;1.80;;;23.60;54.00;;;;;;222327;1256;25543;-55
2023/03/14 14:05:37;;;;;;;1.70;1.60;;;23.40;54.30;;;;;;222338;1259;23011;-55
2023/03/14 14:10:41;;;;;;;1.90;1.70;;;23.40;54.30;;;;;;222308;1259;23017;-40
2023/03/14 14:15:49;;;;;;;1.90;1.60;;;23.20;54.50;;;;;;222553;1263;24038;-42
2023/03/14 14:20:54;;;;;;;2.40;2.10;;;23.00;54.70;;;;;;222195;1256;221374;-41
2023/03/14 14:25:59;;;;;;;2.30;2.10;;;22.90;54.90;;;;;;221970;1263;26262;-45
2023/03/14 14:31:07;;;;;;;3.40;2.30;;;22.90;55.20;;;;;;221932;1263;23887;-42
2023/03/14 14:36:25;;;;;;;1.90;1.70;;;22.90;55.30;;;;;;222417;1263;22627;-44
2023/03/14 14:41:31;;;;;;;3.40;2.10;;;22.80;55.40;;;;;;222395;1263;25613;-42
2023/03/14 14:46:37;;;;;;;2.50;2.00;;;22.90;55.90;;;;;;222226;1257;22525;-44
2023/03/14 14:51:46;;;;;;;2.40;2.20;;;22.90;56.60;;;;;;222012;1257;22525;-42
2023/03/14 14:56:53;;;;;;;3.50;2.10;;;22.90;56.50;;;;;;221810;1267;25270;-43
2023/03/14 15:02:02;;;;;;;2.80;2.40;;;22.80;56.50;;;;;;222122;1256;22511;-45
2023/03/14 15:07:08;;;;;;;2.50;2.30;;;22.80;56.50;;;;;;222559;1260;25389;-44
2023/03/14 15:12:13;;;;;;;3.00;1.90;;;22.80;57.10;;;;;;222204;1256;22648;-43
2023/03/14 15:17:16;;;;;;;2.60;2.40;;;22.80;57.30;;;;;;222319;1263;25387;-43
2023/03/14 15:22:20;;;;;;;2.30;2.10;;;22.70;57.50;;;;;;222150;1263;22748;-44
2023/03/14 15:27:25;;;;;;;2.40;2.10;;;22.70;57.40;;;;;;222175;1257;23995;-44
2023/03/14 15:32:30;;;;;;;6.30;2.20;;;22.60;57.40;;;;;;221927;1259;24186;-43
2023/03/14 15:37:35;;;;;;;2.20;2.00;;;22.60;57.30;;;;;;222214;1257;26618;-43
2023/03/14 15:42:40;;;;;;;4.90;2.10;;;22.60;57.60;;;;;;222376;1262;22513;-42
2023/03/14 15:47:44;;;;;;;2.30;2.00;;;22.60;58.00;;;;;;222197;1258;24184;-43
2023/03/14 15:52:48;;;;;;;5.20;2.50;;;22.50;57.70;;;;;;222016;1263;24092;-41
2023/03/14 15:57:52;;;;;;;3.60;2.50;;;22.40;59.40;;;;;;222293;1270;24359;-48
2023/03/14 16:02:57;;;;;;;2.80;2.30;;;22.50;60.60;;;;;;222277;1256;23237;-42
2023/03/14 16:08:02;;;;;;;5.40;2.50;;;22.50;59.60;;;;;;222136;1262;22553;-40
2023/03/14 16:13:07;;;;;;;10.20;2.60;;;22.50;59.80;;;;;;222131;1262;22514;-39
2023/03/14 16:18:12;;;;;;;13.30;2.90;;;22.50;60.60;;;;;;222233;1263;22638;-42
2023/03/14 16:23:27;;;;;;;9.60;2.60;;;22.60;60.50;;;;;;222123;1256;23981;-40
2023/03/14 16:28:31;;;;;;;6.70;3.10;;;22.70;60.70;;;;;;222176;1263;22518;-39
2023/03/14 16:33:37;;;;;;;7.30;2.40;;;22.60;61.10;;;;;;222350;1263;24186;-43
2023/03/14 16:38:43;;;;;;;8.40;2.80;;;22.60;60.90;;;;;;222072;1263;22513;-43
2023/03/14 16:43:53;;;;;;;5.30;2.70;;;22.60;61.30;;;;;;221951;1256;24445;-43
2023/03/14 16:48:58;;;;;;;7.60;2.70;;;22.40;61.10;;;;;;222210;1263;24355;-47
2023/03/14 16:54:03;;;;;;;7.10;3.10;;;22.30;60.50;;;;;;221887;1258;25558;-40
2023/03/14 16:59:08;;;;;;;7.80;2.60;;;22.40;60.90;;;;;;223170;1257;24212;-39
2023/03/14 17:04:12;;;;;;;5.70;2.60;;;22.50;60.40;;;;;;222259;1263;24193;-42
2023/03/14 17:09:18;;;;;;;3.10;2.30;;;22.40;60.20;;;;;;222054;1263;22621;-41
2023/03/14 17:14:23;;;;;;;4.10;2.00;;;22.50;60.20;;;;;;222046;1271;24219;-46
2023/03/14 17:19:27;;;;;;;7.70;2.50;;;22.50;59.70;;;;;;221994;1267;24206;-45
2023/03/14 17:24:31;;;;;;;5.50;2.20;;;22.40;59.80;;;;;;222053;1264;22629;-46
2023/03/14 17:29:36;;;;;;;3.90;2.60;;;22.30;59.60;;;;;;221918;1266;22516;-42
2023/03/14 17:34:41;;;;;;;9.00;2.80;;;22.40;59.50;;;;;;223879;1266;24309;-44
2023/03/14 17:39:47;;;;;;;7.00;2.70;;;22.30;59.40;;;;;;222801;1269;25390;-38
2023/03/14 17:44:54;;;;;;;6.00;2.50;;;22.40;59.30;;;;;;222167;1257;22558;-40
2023/03/14 17:50:04;;;;;;;6.90;2.60;;;22.30;59.60;;;;;;223294;1257;24212;-39
2023/03/14 17:55:10;;;;;;;8.60;2.70;;;22.30;58.90;;;;;;221786;1266;24196;-40
2023/03/14 18:00:17;;;;;;;2.20;2.00;;;22.20;58.50;;;;;;222077;1256;25297;-42
2023/03/14 18:05:23;;;;;;;2.80;2.20;;;22.30;58.60;;;;;;222146;1256;23745;-41
2023/03/14 18:10:30;;;;;;;2.90;2.60;;;22.30;58.40;;;;;;222398;1257;22534;-41
2023/03/14 18:15:36;;;;;;;2.50;2.10;;;22.10;58.80;;;;;;222217;1257;22600;-41
2023/03/14 18:20:47;;;;;;;3.40;2.30;;;22.10;58.60;;;;;;222255;1260;25667;-43
2023/03/14 18:25:53;;;;;;;5.40;2.40;;;22.10;59.00;;;;;;221968;1263;22560;-49
2023/03/14 18:31:08;;;;;;;4.10;2.70;;;22.10;58.90;;;;;;221770;1257;22518;-47
2023/03/14 18:36:16;;;;;;;7.60;2.40;;;22.10;58.90;;;;;;222318;1266;22513;-40
2023/03/14 18:41:24;;;;;;;4.40;2.40;;;22.10;58.20;;;;;;221947;1255;22517;-39
2023/03/14 18:46:31;;;;;;;9.40;3.10;;;22.30;58.20;;;;;;222164;1263;23797;-40
2023/03/14 18:51:39;;;;;;;4.90;2.50;;;22.10;58.00;;;;;;222265;1269;24174;-38
2023/03/14 18:56:47;;;;;;;3.70;3.20;;;22.10;58.10;;;;;;222396;1263;25413;-40
2023/03/14 19:01:54;;;;;;;4.20;2.70;;;22.00;58.10;;;;;;222070;1266;25060;-41
2023/03/14 19:07:03;;;;;;;3.40;2.60;;;22.00;58.10;;;;;;222288;1263;24233;-39
2023/03/14 19:12:12;;;;;;;4.00;2.60;;;21.90;58.10;;;;;;222296;1262;25487;-39
2023/03/14 19:17:22;;;;;;;4.70;2.30;;;21.90;58.10;;;;;;222192;1257;22563;-39
2023/03/14 19:22:28;;;;;;;7.10;2.90;;;21.80;58.00;;;;;;221953;1257;24262;-40
2023/03/14 19:27:34;;;;;;;3.20;2.50;;;21.80;57.90;;;;;;222469;1259;22510;-39
2023/03/14 19:32:41;;;;;;;4.00;2.80;;;21.80;58.00;;;;;;221801;1270;22633;-39
2023/03/14 19:37:52;;;;;;;4.00;2.70;;;21.70;58.30;;;;;;222484;1257;25316;-39
2023/03/14 19:43:01;;;;;;;3.50;2.70;;;21.70;57.90;;;;;;221893;1263;23043;-37
2023/03/14 19:48:11;;;;;;;2.70;2.50;;;21.90;57.50;;;;;;222470;1263;22501;-39
2023/03/14 19:53:17;;;;;;;4.30;3.00;;;22.10;56.90;;;;;;222286;1264;22514;-41
2023/03/14 19:58:24;;;;;;;4.30;2.40;;;22.30;56.30;;;;;;222349;1266;22662;-39
2023/03/14 20:03:30;;;;;;;3.00;2.60;;;22.50;56.40;;;;;;222266;1260;26284;-39
2023/03/14 20:08:38;;;;;;;2.60;2.40;;;22.70;55.30;;;;;;222589;1263;24195;-39
2023/03/14 20:13:46;;;;;;;3.30;2.20;;;22.80;54.80;;;;;;222478;1262;22626;-40
2023/03/14 20:18:52;;;;;;;4.50;2.30;;;23.00;54.90;;;;;;222324;1263;25319;-42
2023/03/14 20:24:02;;;;;;;2.60;2.20;;;23.00;54.20;;;;;;222282;1263;22738;-39
2023/03/14 20:29:09;;;;;;;3.80;2.80;;;23.10;54.40;;;;;;222247;1263;24174;-40
2023/03/14 20:34:16;;;;;;;2.00;1.80;;;23.30;53.60;;;;;;222359;1264;22623;-42
2023/03/14 20:39:23;;;;;;;2.10;1.90;;;23.40;53.50;;;;;;222244;1256;24234;-40
2023/03/14 20:44:31;;;;;;;2.20;2.00;;;23.50;52.90;;;;;;222382;1263;22619;-55
2023/03/14 20:49:39;;;;;;;3.40;1.80;;;23.60;53.00;;;;;;222319;1262;25373;-52
2023/03/14 20:54:45;;;;;;;3.30;2.20;;;23.70;52.30;;;;;;222357;1248;24166;-53
2023/03/14 20:59:51;;;;;;;9.20;2.30;;;23.70;52.40;;;;;;222024;1257;25259;-55
2023/03/14 21:04:57;;;;;;;4.70;2.30;;;23.80;54.10;;;;;;222231;1263;24177;-58
2023/03/14 21:10:03;;;;;;;4.90;2.50;;;23.40;55.80;;;;;;222402;1257;24188;-55
2023/03/14 21:15:14;;;;;;;5.90;2.20;;;23.20;57.30;;;;;;221965;1261;22514;-53
2023/03/14 21:20:19;;;;;;;3.70;2.10;;;23.10;58.10;;;;;;222346;1256;24036;-55
2023/03/14 21:25:24;;;;;;;4.60;1.80;;;23.10;57.80;;;;;;222332;1260;22629;-52
2023/03/14 21:30:34;;;;;;;8.80;2.30;;;23.00;59.10;;;;;;222284;1264;24194;-49
2023/03/14 21:35:38;;;;;;;7.80;1.80;;;22.90;58.10;;;;;;222633;1261;25629;-52
2023/03/14 21:40:48;;;;;;;6.90;2.00;;;22.70;59.20;;;;;;222336;1264;22752;-56
2023/03/14 21:45:55;;;;;;;6.00;1.90;;;22.60;60.40;;;;;;222225;1266;25411;-54
2023/03/14 21:51:04;;;;;;;4.80;2.30;;;22.50;58.60;;;;;;222150;1258;23943;-54
2023/03/14 21:56:13;;;;;;;5.90;2.40;;;22.50;60.10;;;;;;222080;1257;25265;-53
2023/03/14 22:01:21;;;;;;;5.70;2.30;;;22.40;59.40;;;;;;222213;1263;22521;-50
2023/03/14 22:06:29;;;;;;;5.50;1.90;;;22.50;58.80;;;;;;222293;1263;22517;-54
2023/03/14 22:11:32;;;;;;;8.30;2.50;;;22.40;58.90;;;;;;222140;1257;23889;-51
2023/03/14 22:16:36;;;;;;;8.50;3.10;;;22.50;58.70;;;;;;222405;1263;25333;-54
2023/03/14 22:21:42;;;;;;;9.90;3.70;;;22.50;59.20;;;;;;222306;1263;22656;-52
2023/03/14 22:26:56;;;;;;;9.40;3.10;;;22.50;58.50;;;;;;222209;1264;24243;-50
2023/03/14 22:32:05;;;;;;;12.50;3.80;;;22.50;58.50;;;;;;222255;1263;22524;-54
2023/03/14 22:37:13;;;;;;;10.20;3.50;;;22.40;58.50;;;;;;221963;1264;22531;-54
2023/03/14 22:42:18;;;;;;;10.30;3.90;;;22.40;58.50;;;;;;222319;1264;22641;-54
2023/03/14 22:47:22;;;;;;;8.50;2.90;;;22.30;59.00;;;;;;222168;1263;24231;-54
2023/03/14 22:52:29;;;;;;;7.60;3.00;;;22.30;58.50;;;;;;222502;1264;24239;-51
2023/03/14 22:57:36;;;;;;;7.00;2.80;;;22.20;58.60;;;;;;224036;1257;22511;-53
2023/03/14 23:09:00;;;;;;;6.50;2.60;;;22.10;59.40;;;;;;222250;1262;23909;-54
2023/03/14 23:14:05;;;;;;;6.90;2.70;;;22.00;59.10;;;;;;222424;1247;25197;-55
2023/03/14 23:19:09;;;;;;;12.00;3.80;;;22.00;59.50;;;;;;222277;1264;22878;-53
2023/03/14 23:24:14;;;;;;;11.70;3.90;;;22.00;59.90;;;;;;222313;1266;25460;-53
2023/03/14 23:29:18;;;;;;;13.10;4.10;;;22.00;60.20;;;;;;222149;1252;23890;-57
2023/03/14 23:34:24;;;;;;;10.00;3.40;;;22.10;60.90;;;;;;222193;1258;22526;-53
2023/03/14 23:39:28;;;;;;;8.00;3.40;;;21.90;62.10;;;;;;222285;1257;24193;-57
2023/03/14 23:44:32;;;;;;;7.00;3.40;;;21.80;61.70;;;;;;222331;1263;24185;-56
2023/03/14 23:49:36;;;;;;;8.30;3.20;;;21.80;61.80;;;;;;222262;1263;22522;-59
2023/03/14 23:54:40;;;;;;;6.20;3.10;;;21.80;61.10;;;;;;222470;1266;26500;-54
2023/03/14 23:59:44;;;;;;;5.90;2.80;;;21.80;61.00;;;;;;222252;1263;23884;-54
